createdAt,value
2018-07-31T00:02:07.722Z,94.40
2018-07-31T00:07:03.958Z,94.50
2018-07-31T00:09:32.183Z,94.50
2018-07-31T00:12:00.384Z,94.40
2018-07-31T00:14:28.790Z,94.40
2018-07-31T00:16:57.050Z,94.30
2018-07-31T00:19:25.293Z,94.40
2018-07-31T00:21:53.541Z,94.60
2018-07-31T00:24:21.875Z,94.30
2018-07-31T00:26:50.214Z,94.30
2018-07-31T00:29:18.470Z,94.30
2018-07-31T00:31:46.846Z,94.20
2018-07-31T00:34:15.127Z,94.40
2018-07-31T00:36:43.349Z,94.40
2018-07-31T00:39:12.376Z,94.50
2018-07-31T00:41:41.373Z,94.60
2018-07-31T00:44:09.664Z,94.60
2018-07-31T00:46:38.017Z,94.70
2018-07-31T00:49:06.355Z,94.70
2018-07-31T00:51:34.853Z,94.80
2018-07-31T00:54:03.400Z,94.90
2018-07-31T00:56:31.676Z,95.00
2018-07-31T00:58:59.899Z,95.00
2018-07-31T01:04:28.523Z,94.80
2018-07-31T01:06:56.738Z,94.70
2018-07-31T01:09:24.904Z,94.70
2018-07-31T01:11:53.112Z,94.70
2018-07-31T01:14:21.336Z,94.80
2018-07-31T01:16:49.497Z,94.90
2018-07-31T01:19:17.687Z,95.00
2018-07-31T01:21:45.936Z,95.00
2018-07-31T01:24:14.235Z,94.80
2018-07-31T01:26:42.422Z,94.60
2018-07-31T01:29:10.655Z,94.70
2018-07-31T01:31:39.026Z,94.60
2018-07-31T01:34:08.413Z,94.30
2018-07-31T01:36:36.661Z,94.10
2018-07-31T01:39:07.730Z,94.30
2018-07-31T01:41:35.908Z,94.40
2018-07-31T01:44:04.343Z,94.50
2018-07-31T01:46:32.549Z,94.70
2018-07-31T01:51:28.736Z,94.80
2018-07-31T01:53:57.037Z,94.90
2018-07-31T01:56:25.258Z,94.90
2018-07-31T01:58:53.502Z,94.80
2018-07-31T02:01:21.714Z,94.70
2018-07-31T02:03:50.126Z,94.80
2018-07-31T02:06:20.858Z,94.60
2018-07-31T02:08:49.066Z,94.40
2018-07-31T02:13:45.290Z,94.60
2018-07-31T02:16:13.508Z,94.80
2018-07-31T02:18:41.752Z,95.00
2018-07-31T02:23:37.960Z,95.00
2018-07-31T02:28:34.361Z,95.10
2018-07-31T02:31:02.577Z,95.30
2018-07-31T02:33:31.491Z,95.30
2018-07-31T02:35:59.696Z,95.00
2018-07-31T02:38:27.900Z,94.80
2018-07-31T02:40:56.144Z,94.80
2018-07-31T02:43:24.377Z,95.00
2018-07-31T02:45:52.607Z,94.90
2018-07-31T02:48:20.849Z,94.70
2018-07-31T02:50:49.079Z,94.60
2018-07-31T02:53:17.317Z,94.70
2018-07-31T02:55:45.776Z,94.90
2018-07-31T03:01:13.675Z,94.90
2018-07-31T03:03:42.057Z,95.00
2018-07-31T03:06:10.236Z,95.30
2018-07-31T03:08:38.526Z,94.60
2018-07-31T03:11:06.978Z,94.60
2018-07-31T03:13:35.243Z,94.50
2018-07-31T03:16:03.455Z,94.60
2018-07-31T03:18:31.834Z,94.80
2018-07-31T03:21:00.128Z,94.90
2018-07-31T03:23:28.358Z,95.00
2018-07-31T03:25:56.670Z,94.80
2018-07-31T03:28:24.940Z,94.70
2018-07-31T03:30:53.159Z,94.90
2018-07-31T03:33:21.439Z,95.00
2018-07-31T03:35:49.641Z,95.10
2018-07-31T03:38:17.911Z,95.00
2018-07-31T03:40:46.221Z,95.00
2018-07-31T03:43:15.442Z,95.20
2018-07-31T03:45:44.867Z,95.30
2018-07-31T03:48:13.074Z,95.50
2018-07-31T03:50:41.429Z,95.70
2018-07-31T03:53:09.638Z,96.10
2018-07-31T03:58:39.612Z,96.50
2018-07-31T04:01:08.160Z,96.30
2018-07-31T04:03:36.521Z,96.00
2018-07-31T04:06:04.724Z,96.00
2018-07-31T04:08:32.930Z,96.10
2018-07-31T04:11:01.145Z,95.70
2018-07-31T04:13:29.405Z,95.70
2018-07-31T04:15:57.660Z,95.70
2018-07-31T04:18:25.845Z,96.00
2018-07-31T04:20:54.045Z,95.80
2018-07-31T04:25:50.239Z,95.30
2018-07-31T04:28:18.494Z,95.10
2018-07-31T04:30:46.684Z,95.30
2018-07-31T04:33:14.874Z,95.40
2018-07-31T04:36:13.965Z,95.50
2018-07-31T04:38:42.139Z,95.10
2018-07-31T04:41:10.606Z,95.00
2018-07-31T04:46:06.752Z,95.10
2018-07-31T04:48:35.080Z,94.70
2018-07-31T04:51:03.348Z,94.90
2018-07-31T04:53:31.537Z,95.10
2018-07-31T04:55:59.792Z,95.10
2018-07-31T04:58:28.029Z,95.30
2018-07-31T05:00:56.247Z,95.30
2018-07-31T05:03:24.650Z,95.30
2018-07-31T05:05:54.547Z,95.40
2018-07-31T05:08:22.742Z,95.30
2018-07-31T05:10:50.902Z,95.60
2018-07-31T05:13:19.229Z,95.90
2018-07-31T05:15:48.524Z,96.50
2018-07-31T05:18:16.721Z,96.40
2018-07-31T05:20:44.982Z,96.40
2018-07-31T05:23:13.157Z,96.30
2018-07-31T05:25:41.361Z,96.20
2018-07-31T05:28:09.541Z,96.20
2018-07-31T05:30:37.983Z,96.40
2018-07-31T05:33:06.188Z,96.50
2018-07-31T05:35:35.525Z,96.60
2018-07-31T05:38:03.783Z,96.60
2018-07-31T05:40:32.036Z,96.70
2018-07-31T05:45:30.304Z,96.80
2018-07-31T05:47:58.585Z,96.90
2018-07-31T05:50:26.812Z,97.00
2018-07-31T05:52:55.088Z,97.10
2018-07-31T05:55:23.293Z,97.20
2018-07-31T05:57:51.585Z,96.90
2018-07-31T06:02:47.800Z,96.50
2018-07-31T06:05:16.042Z,96.70
2018-07-31T06:07:44.291Z,96.70
2018-07-31T06:10:12.500Z,96.60
2018-07-31T06:12:40.842Z,96.60
2018-07-31T06:17:37.078Z,96.60
2018-07-31T06:20:10.374Z,96.70
2018-07-31T06:22:38.607Z,96.20
2018-07-31T06:25:07.693Z,95.90
2018-07-31T06:27:36.019Z,96.00
2018-07-31T06:30:04.606Z,95.70
2018-07-31T06:32:32.854Z,95.90
2018-07-31T06:35:01.106Z,95.60
2018-07-31T06:37:29.300Z,95.50
2018-07-31T06:39:57.557Z,95.20
2018-07-31T06:42:25.765Z,94.90
2018-07-31T06:44:54.008Z,94.00
2018-07-31T06:47:22.243Z,94.00
2018-07-31T06:49:50.443Z,93.90
2018-07-31T06:52:18.694Z,93.90
2018-07-31T06:54:47.186Z,93.90
2018-07-31T06:57:15.449Z,93.40
2018-07-31T06:59:43.670Z,93.60
2018-07-31T07:02:11.982Z,93.20
2018-07-31T07:04:40.195Z,93.10
2018-07-31T07:07:15.113Z,93.10
2018-07-31T07:09:43.307Z,93.10
2018-07-31T07:12:11.600Z,93.00
2018-07-31T07:14:39.835Z,93.10
2018-07-31T07:17:08.034Z,93.00
2018-07-31T07:19:36.307Z,92.30
2018-07-31T07:22:04.633Z,91.90
2018-07-31T07:24:33.056Z,91.80
2018-07-31T07:27:01.348Z,91.50
2018-07-31T07:29:29.789Z,91.60
2018-07-31T07:31:58.148Z,91.70
2018-07-31T07:34:26.844Z,91.60
2018-07-31T07:36:55.042Z,91.50
2018-07-31T07:39:23.323Z,91.10
2018-07-31T07:41:51.521Z,90.40
2018-07-31T07:44:19.774Z,90.60
2018-07-31T07:46:47.976Z,90.60
2018-07-31T07:51:44.243Z,90.40
2018-07-31T07:54:12.740Z,90.70
2018-07-31T07:56:40.904Z,90.60
2018-07-31T07:59:09.141Z,90.30
2018-07-31T08:04:05.412Z,90.20
2018-07-31T08:06:33.648Z,89.50
2018-07-31T08:09:01.842Z,89.90
2018-07-31T08:13:58.229Z,88.50
2018-07-31T08:16:26.464Z,86.90
2018-07-31T08:18:54.663Z,87.00
2018-07-31T08:21:22.863Z,86.60
2018-07-31T08:26:51.182Z,86.00
2018-07-31T08:29:19.348Z,84.80
2018-07-31T08:31:47.554Z,84.40
2018-07-31T08:34:15.867Z,84.70
2018-07-31T08:36:44.122Z,85.30
2018-07-31T08:39:12.451Z,86.20
2018-07-31T08:41:40.673Z,86.60
2018-07-31T08:44:09.953Z,87.00
2018-07-31T08:46:38.203Z,87.50
2018-07-31T08:49:06.589Z,87.90
2018-07-31T08:51:34.898Z,89.00
2018-07-31T08:54:04.573Z,89.70
2018-07-31T08:56:32.747Z,89.80
2018-07-31T08:59:00.959Z,90.20
2018-07-31T09:01:29.173Z,90.20
2018-07-31T09:03:58.567Z,90.00
2018-07-31T09:06:26.779Z,89.60
2018-07-31T09:08:55.010Z,89.30
2018-07-31T09:11:23.229Z,88.80
2018-07-31T09:13:51.773Z,88.50
2018-07-31T09:16:19.962Z,88.20
2018-07-31T09:18:48.170Z,86.20
2018-07-31T09:21:16.379Z,85.60
2018-07-31T09:23:44.904Z,85.00
2018-07-31T09:26:13.159Z,84.60
2018-07-31T09:28:41.302Z,85.10
2018-07-31T09:31:12.325Z,85.10
2018-07-31T09:33:41.102Z,84.70
2018-07-31T09:36:09.317Z,83.70
2018-07-31T09:38:37.493Z,83.60
2018-07-31T09:41:05.740Z,82.90
2018-07-31T09:43:33.905Z,83.30
2018-07-31T09:46:02.195Z,83.60
2018-07-31T09:48:30.473Z,82.50
2018-07-31T09:50:58.622Z,82.70
2018-07-31T09:53:29.846Z,82.10
2018-07-31T09:55:58.077Z,80.40
2018-07-31T09:58:26.259Z,80.20
2018-07-31T10:00:59.950Z,80.20
2018-07-31T10:03:28.152Z,79.30
2018-07-31T10:05:56.414Z,78.50
2018-07-31T10:08:24.621Z,77.40
2018-07-31T10:10:54.259Z,76.80
2018-07-31T10:13:22.443Z,77.20
2018-07-31T10:15:51.124Z,77.80
2018-07-31T10:18:19.450Z,76.70
2018-07-31T10:20:47.671Z,76.30
2018-07-31T10:23:15.881Z,77.00
2018-07-31T10:25:44.152Z,76.80
2018-07-31T10:28:12.441Z,77.20
2018-07-31T10:30:40.826Z,77.50
2018-07-31T10:33:09.001Z,76.10
2018-07-31T10:35:37.314Z,74.80
2018-07-31T10:38:05.583Z,75.10
2018-07-31T10:40:33.802Z,75.50
2018-07-31T10:43:02.001Z,76.50
2018-07-31T10:45:30.483Z,80.00
2018-07-31T10:47:58.878Z,85.00
2018-07-31T10:50:27.080Z,89.00
2018-07-31T10:52:55.266Z,90.90
2018-07-31T10:55:23.675Z,91.90
2018-07-31T10:57:51.934Z,91.60
2018-07-31T11:00:20.219Z,91.90
2018-07-31T11:02:48.417Z,91.70
2018-07-31T11:05:17.604Z,91.90
2018-07-31T11:07:45.779Z,91.50
2018-07-31T11:10:14.012Z,91.30
2018-07-31T11:12:42.214Z,90.70
2018-07-31T11:15:10.456Z,90.60
2018-07-31T11:17:39.478Z,90.80
2018-07-31T11:20:07.662Z,90.20
2018-07-31T11:22:35.864Z,89.80
2018-07-31T11:25:05.039Z,88.80
2018-07-31T11:27:33.269Z,86.30
2018-07-31T11:30:01.909Z,84.30
2018-07-31T11:32:30.148Z,85.20
2018-07-31T11:34:58.476Z,84.10
2018-07-31T11:37:26.701Z,82.90
2018-07-31T11:39:54.876Z,81.60
2018-07-31T11:42:23.067Z,81.70
2018-07-31T11:44:51.357Z,80.50
2018-07-31T11:47:19.548Z,81.20
2018-07-31T11:49:47.823Z,80.50
2018-07-31T11:52:15.940Z,80.10
2018-07-31T11:54:44.277Z,80.30
2018-07-31T11:57:12.490Z,80.80
2018-07-31T11:59:40.707Z,78.70
2018-07-31T12:02:08.923Z,79.70
2018-07-31T12:04:37.441Z,79.90
2018-07-31T12:07:05.652Z,79.00
2018-07-31T12:09:33.876Z,78.30
2018-07-31T12:14:30.102Z,77.80
2018-07-31T12:16:58.691Z,77.20
2018-07-31T12:19:26.935Z,75.90
2018-07-31T12:21:55.192Z,75.90
2018-07-31T12:24:23.572Z,76.50
2018-07-31T12:26:51.870Z,76.20
2018-07-31T12:29:20.122Z,76.60
2018-07-31T12:31:48.517Z,75.90
2018-07-31T12:34:17.930Z,75.20
2018-07-31T12:36:46.268Z,75.90
2018-07-31T12:39:14.497Z,75.40
2018-07-31T12:41:43.341Z,75.00
2018-07-31T12:44:11.681Z,74.40
2018-07-31T12:46:39.869Z,74.70
2018-07-31T12:51:36.265Z,73.40
2018-07-31T12:54:04.554Z,71.60
2018-07-31T12:56:32.783Z,70.70
2018-07-31T12:59:00.974Z,71.60
2018-07-31T13:01:29.568Z,71.30
2018-07-31T13:03:57.939Z,71.80
2018-07-31T13:06:26.193Z,71.60
2018-07-31T13:08:54.410Z,71.60
2018-07-31T13:11:22.618Z,70.40
2018-07-31T13:13:50.941Z,68.70
2018-07-31T13:16:19.195Z,69.70
2018-07-31T13:18:47.393Z,68.90
2018-07-31T13:21:15.690Z,68.10
2018-07-31T13:23:44.032Z,67.10
2018-07-31T13:26:12.309Z,67.10
2018-07-31T13:28:40.531Z,67.40
2018-07-31T13:31:08.765Z,66.40
2018-07-31T13:33:37.194Z,65.90
2018-07-31T13:36:05.454Z,65.20
2018-07-31T13:38:33.726Z,64.80
2018-07-31T13:41:24.733Z,65.40
2018-07-31T13:43:53.130Z,64.40
2018-07-31T13:46:21.894Z,64.10
2018-07-31T13:48:50.121Z,64.50
2018-07-31T13:51:18.366Z,65.50
2018-07-31T13:53:46.712Z,65.30
2018-07-31T13:56:14.896Z,65.60
2018-07-31T13:58:43.103Z,65.30
2018-07-31T14:01:11.316Z,64.70
2018-07-31T14:03:40.607Z,65.40
2018-07-31T14:06:08.833Z,64.20
2018-07-31T14:08:37.093Z,64.20
2018-07-31T14:13:33.330Z,64.40
2018-07-31T14:16:01.620Z,64.00
2018-07-31T14:18:29.890Z,63.70
2018-07-31T14:20:58.145Z,63.60
2018-07-31T14:23:26.382Z,63.40
2018-07-31T14:25:54.682Z,62.70
2018-07-31T14:28:22.873Z,63.40
2018-07-31T14:30:51.194Z,63.50
2018-07-31T14:33:19.402Z,63.80
2018-07-31T14:35:47.789Z,62.00
2018-07-31T14:38:15.993Z,60.60
2018-07-31T14:43:12.179Z,59.70
2018-07-31T14:45:40.597Z,60.50
2018-07-31T14:48:08.881Z,60.60
2018-07-31T14:53:05.101Z,58.40
2018-07-31T14:55:33.421Z,59.60
2018-07-31T14:58:01.673Z,59.80
2018-07-31T15:00:29.900Z,58.60
2018-07-31T15:02:58.174Z,58.40
2018-07-31T15:05:26.482Z,57.90
2018-07-31T15:07:54.711Z,58.30
2018-07-31T15:10:22.906Z,59.10
2018-07-31T15:12:51.126Z,59.00
2018-07-31T15:15:19.362Z,60.10
2018-07-31T15:17:47.705Z,59.90
2018-07-31T15:20:15.933Z,59.10
2018-07-31T15:22:44.179Z,59.20
2018-07-31T15:25:12.479Z,59.00
2018-07-31T15:27:40.740Z,59.60
2018-07-31T15:30:08.923Z,59.20
2018-07-31T15:32:37.152Z,59.30
2018-07-31T15:35:05.586Z,60.60
2018-07-31T15:37:33.849Z,61.40
2018-07-31T15:40:02.034Z,61.10
2018-07-31T15:42:30.292Z,61.40
2018-07-31T15:44:59.703Z,62.10
2018-07-31T15:47:28.281Z,62.60
2018-07-31T15:49:56.552Z,63.20
2018-07-31T15:52:24.796Z,63.30
2018-07-31T15:54:53.182Z,63.40
2018-07-31T15:57:21.362Z,63.40
2018-07-31T15:59:49.557Z,62.70
2018-07-31T16:02:17.780Z,61.90
2018-07-31T16:04:46.125Z,61.90
2018-07-31T16:07:14.344Z,62.10
2018-07-31T16:09:42.615Z,62.50
2018-07-31T16:12:10.839Z,62.80
2018-07-31T16:14:39.407Z,62.90
2018-07-31T16:17:07.611Z,62.80
2018-07-31T16:22:03.886Z,62.80
2018-07-31T16:24:32.308Z,63.10
2018-07-31T16:27:01.243Z,63.20
2018-07-31T16:29:29.469Z,63.80
2018-07-31T16:31:57.710Z,63.60
2018-07-31T16:34:26.029Z,63.20
2018-07-31T16:36:54.256Z,63.30
2018-07-31T16:39:22.517Z,62.70
2018-07-31T16:41:50.731Z,62.30
2018-07-31T16:44:19.090Z,63.00
2018-07-31T16:46:47.318Z,62.70
2018-07-31T16:49:15.523Z,63.50
2018-07-31T16:51:43.783Z,64.10
2018-07-31T16:54:12.069Z,64.30
2018-07-31T16:56:40.285Z,64.50
2018-07-31T16:59:08.503Z,64.90
2018-07-31T17:04:04.733Z,65.60
2018-07-31T17:06:32.922Z,66.20
2018-07-31T17:09:01.393Z,65.70
2018-07-31T17:11:30.096Z,65.70
2018-07-31T17:13:58.595Z,66.10
2018-07-31T17:16:26.831Z,66.50
2018-07-31T17:18:55.022Z,66.60
2018-07-31T17:21:23.609Z,67.00
2018-07-31T17:23:51.915Z,67.60
2018-07-31T17:26:20.155Z,68.00
2018-07-31T17:28:48.397Z,68.40
2018-07-31T17:31:16.672Z,68.50
2018-07-31T17:36:13.951Z,67.50
2018-07-31T17:38:42.145Z,67.50
2018-07-31T17:41:10.521Z,67.80
2018-07-31T17:43:40.083Z,68.10
2018-07-31T17:46:08.834Z,68.10
2018-07-31T17:48:37.023Z,67.10
2018-07-31T17:51:05.248Z,66.50
2018-07-31T17:53:33.724Z,65.60
2018-07-31T17:56:01.948Z,65.80
2018-07-31T17:58:30.222Z,66.40
2018-07-31T18:00:59.243Z,67.00
2018-07-31T18:03:27.497Z,67.00
2018-07-31T18:05:55.752Z,67.40
2018-07-31T18:08:23.974Z,67.50
2018-07-31T18:10:52.150Z,67.50
2018-07-31T18:15:48.403Z,68.20
2018-07-31T18:18:16.805Z,68.70
2018-07-31T18:20:45.047Z,68.80
2018-07-31T18:25:41.331Z,68.60
2018-07-31T18:28:09.667Z,68.70
2018-07-31T18:30:37.992Z,69.10
2018-07-31T18:33:06.230Z,69.70
2018-07-31T18:35:34.795Z,70.10
2018-07-31T18:38:03.023Z,71.00
2018-07-31T18:40:31.415Z,72.00
2018-07-31T18:42:59.839Z,72.80
2018-07-31T18:45:28.298Z,73.60
2018-07-31T18:47:56.791Z,74.10
2018-07-31T18:50:25.031Z,74.10
2018-07-31T18:52:53.317Z,74.20
2018-07-31T18:55:27.295Z,74.30
2018-07-31T18:57:55.529Z,74.10
2018-07-31T19:00:23.735Z,74.10
2018-07-31T19:02:51.932Z,74.40
2018-07-31T19:05:20.201Z,74.90
2018-07-31T19:07:48.394Z,75.30
2018-07-31T19:10:16.747Z,76.50
2018-07-31T19:12:44.976Z,76.00
2018-07-31T19:15:13.218Z,76.10
2018-07-31T19:17:41.487Z,76.40
2018-07-31T19:20:09.762Z,76.20
2018-07-31T19:22:37.993Z,75.70
2018-07-31T19:25:07.256Z,75.60
2018-07-31T19:27:35.447Z,75.70
2018-07-31T19:30:03.643Z,76.20
2018-07-31T19:32:31.903Z,76.30
2018-07-31T19:35:00.446Z,76.50
2018-07-31T19:37:28.774Z,76.50
2018-07-31T19:39:57.032Z,76.30
2018-07-31T19:47:38.355Z,76.50
2018-07-31T19:50:06.667Z,76.50
2018-07-31T19:52:34.914Z,76.60
2018-07-31T19:55:03.534Z,76.80
2018-07-31T19:57:31.717Z,77.40
2018-07-31T19:59:59.963Z,77.50
2018-07-31T20:02:28.213Z,77.80
2018-07-31T20:04:56.624Z,78.50
2018-07-31T20:07:25.274Z,79.50
2018-07-31T20:09:53.885Z,80.10
2018-07-31T20:12:22.131Z,80.80
2018-07-31T20:14:50.554Z,81.60
2018-07-31T20:17:18.937Z,82.40
2018-07-31T20:19:47.269Z,83.40
2018-07-31T20:22:15.579Z,84.00
2018-07-31T20:24:43.917Z,84.70
2018-07-31T20:27:12.765Z,84.90
2018-07-31T20:29:42.085Z,85.40
2018-07-31T20:32:10.588Z,85.00
2018-07-31T20:34:39.870Z,85.20
2018-07-31T20:37:08.101Z,85.00
2018-07-31T20:39:36.351Z,85.10
2018-07-31T20:42:04.565Z,85.30
2018-07-31T20:44:32.929Z,85.80
2018-07-31T20:47:01.264Z,85.90
2018-07-31T20:49:29.423Z,86.20
2018-07-31T20:51:57.695Z,86.10
2018-07-31T20:54:26.087Z,86.10
2018-07-31T20:56:54.558Z,86.20
2018-07-31T20:59:22.796Z,86.40
2018-07-31T21:01:50.988Z,86.50
2018-07-31T21:04:19.494Z,87.00
2018-07-31T21:06:47.700Z,87.20
2018-07-31T21:09:20.526Z,87.30
2018-07-31T21:11:49.613Z,87.30
2018-07-31T21:14:19.185Z,87.30
2018-07-31T21:16:47.379Z,87.30
2018-07-31T21:19:15.604Z,87.30
2018-07-31T21:21:43.816Z,87.30
2018-07-31T21:24:12.101Z,87.70
2018-07-31T21:26:40.276Z,87.80
2018-07-31T21:29:08.456Z,88.00
2018-07-31T21:31:36.628Z,88.20
2018-07-31T21:34:06.479Z,88.40
2018-07-31T21:36:34.672Z,88.60
2018-07-31T21:39:02.842Z,88.80
2018-07-31T21:41:31.094Z,89.00
2018-07-31T21:43:59.379Z,89.00
2018-07-31T21:46:27.608Z,89.20
2018-07-31T21:48:56.169Z,89.30
2018-07-31T21:51:24.388Z,89.30
2018-07-31T21:53:52.647Z,89.30
2018-07-31T21:56:20.879Z,89.20
2018-07-31T21:58:49.087Z,89.10
2018-07-31T22:01:17.411Z,89.40
2018-07-31T22:03:45.714Z,89.50
2018-07-31T22:06:13.861Z,89.50
2018-07-31T22:08:42.076Z,89.80
2018-07-31T22:11:10.259Z,89.90
2018-07-31T22:13:38.655Z,89.80
2018-07-31T22:16:06.896Z,89.60
2018-07-31T22:18:35.077Z,89.80
2018-07-31T22:21:04.531Z,89.90
2018-07-31T22:23:32.988Z,90.00
2018-07-31T22:26:01.228Z,90.70
2018-07-31T22:28:29.443Z,90.50
2018-07-31T22:30:57.663Z,90.80
2018-07-31T22:33:25.861Z,90.90
2018-07-31T22:35:54.133Z,91.10
2018-07-31T22:38:22.355Z,91.30
2018-07-31T22:40:50.569Z,91.40
2018-07-31T22:43:18.779Z,91.40
2018-07-31T22:45:47.012Z,91.50
2018-07-31T22:48:15.256Z,91.50
2018-07-31T22:50:43.458Z,91.40
2018-07-31T22:53:11.826Z,91.50
2018-07-31T22:55:40.160Z,91.70
2018-07-31T22:58:08.370Z,91.60
2018-07-31T23:00:36.609Z,91.50
2018-07-31T23:03:04.891Z,91.40
2018-07-31T23:05:33.216Z,91.40
2018-07-31T23:08:01.426Z,91.40
2018-07-31T23:10:29.717Z,91.70
2018-07-31T23:12:57.949Z,92.20
2018-07-31T23:15:26.294Z,92.30
2018-07-31T23:17:54.512Z,92.50
2018-07-31T23:20:22.830Z,92.60
2018-07-31T23:22:51.819Z,92.70
2018-07-31T23:25:20.407Z,92.70
2018-07-31T23:27:48.633Z,92.70
2018-07-31T23:30:16.899Z,92.80
2018-07-31T23:32:45.081Z,93.00
2018-07-31T23:35:13.297Z,92.80
2018-07-31T23:37:41.575Z,92.90
2018-07-31T23:40:09.746Z,93.10
2018-07-31T23:42:37.970Z,93.20
2018-07-31T23:45:06.237Z,93.30
2018-07-31T23:47:34.478Z,93.30
2018-07-31T23:50:02.748Z,93.20
2018-07-31T23:52:31.107Z,93.10
2018-07-31T23:54:59.583Z,93.10
2018-07-31T23:57:27.846Z,93.00
2018-07-31T23:59:56.078Z,93.00
